sensor_id;sensor_type;location;lat;lon;timestamp;P1;durP1;ratioP1;P2;durP2;ratioP2
11058;SDS011;5582;59.272;15.220;2022-08-16T00:00:59;13.87;;;12.57;;
11058;SDS011;5582;59.272;15.220;2022-08-16T00:03:25;13.13;;;11.77;;
11058;SDS011;5582;59.272;15.220;2022-08-16T00:05:51;13.37;;;12.13;;
11058;SDS011;5582;59.272;15.220;2022-08-16T00:08:17;13.43;;;12.23;;
11058;SDS011;5582;59.272;15.220;2022-08-16T00:10:44;12.97;;;11.70;;
11058;SDS011;5582;59.272;15.220;2022-08-16T00:13:09;13.33;;;11.93;;
11058;SDS011;5582;59.272;15.220;2022-08-16T00:15:43;14.17;;;12.80;;
11058;SDS011;5582;59.272;15.220;2022-08-16T00:18:11;14.40;;;12.47;;
11058;SDS011;5582;59.272;15.220;2022-08-16T00:20:40;12.97;;;11.87;;
11058;SDS011;5582;59.272;15.220;2022-08-16T00:23:07;17.93;;;12.87;;
11058;SDS011;5582;59.272;15.220;2022-08-16T00:25:33;14.30;;;12.73;;
11058;SDS011;5582;59.272;15.220;2022-08-16T00:27:59;14.63;;;13.13;;
11058;SDS011;5582;59.272;15.220;2022-08-16T00:30:24;13.93;;;12.63;;
11058;SDS011;5582;59.272;15.220;2022-08-16T00:32:54;14.70;;;13.30;;
11058;SDS011;5582;59.272;15.220;2022-08-16T00:35:23;16.10;;;13.50;;
11058;SDS011;5582;59.272;15.220;2022-08-16T00:37:52;14.67;;;13.20;;
11058;SDS011;5582;59.272;15.220;2022-08-16T00:40:21;14.20;;;12.80;;
11058;SDS011;5582;59.272;15.220;2022-08-16T00:42:50;15.47;;;13.90;;
11058;SDS011;5582;59.272;15.220;2022-08-16T00:47:51;18.07;;;14.20;;
11058;SDS011;5582;59.272;15.220;2022-08-16T00:50:19;15.20;;;13.67;;
11058;SDS011;5582;59.272;15.220;2022-08-16T00:52:53;15.87;;;14.33;;
11058;SDS011;5582;59.272;15.220;2022-08-16T00:55:20;19.57;;;14.80;;
11058;SDS011;5582;59.272;15.220;2022-08-16T00:57:48;15.43;;;13.83;;
11058;SDS011;5582;59.272;15.220;2022-08-16T01:00:17;15.50;;;13.90;;
11058;SDS011;5582;59.272;15.220;2022-08-16T01:02:43;16.93;;;15.20;;
11058;SDS011;5582;59.272;15.220;2022-08-16T01:05:09;15.83;;;13.97;;
11058;SDS011;5582;59.272;15.220;2022-08-16T01:07:35;16.77;;;15.00;;
11058;SDS011;5582;59.272;15.220;2022-08-16T01:10:01;16.83;;;15.13;;
11058;SDS011;5582;59.272;15.220;2022-08-16T01:12:28;15.93;;;14.53;;
11058;SDS011;5582;59.272;15.220;2022-08-16T01:14:55;17.77;;;14.70;;
11058;SDS011;5582;59.272;15.220;2022-08-16T01:17:23;16.13;;;14.53;;
11058;SDS011;5582;59.272;15.220;2022-08-16T01:19:53;15.40;;;13.80;;
11058;SDS011;5582;59.272;15.220;2022-08-16T01:25:25;16.07;;;14.47;;
11058;SDS011;5582;59.272;15.220;2022-08-16T01:27:55;17.03;;;15.00;;
11058;SDS011;5582;59.272;15.220;2022-08-16T01:30:25;15.43;;;14.10;;
11058;SDS011;5582;59.272;15.220;2022-08-16T01:32:54;17.03;;;15.53;;
11058;SDS011;5582;59.272;15.220;2022-08-16T01:35:23;15.53;;;14.13;;
11058;SDS011;5582;59.272;15.220;2022-08-16T01:37:54;15.60;;;14.03;;
11058;SDS011;5582;59.272;15.220;2022-08-16T01:40:37;16.93;;;15.43;;
11058;SDS011;5582;59.272;15.220;2022-08-16T01:43:02;16.13;;;14.50;;
11058;SDS011;5582;59.272;15.220;2022-08-16T01:45:28;16.10;;;14.17;;
11058;SDS011;5582;59.272;15.220;2022-08-16T01:47:54;15.60;;;14.07;;
11058;SDS011;5582;59.272;15.220;2022-08-16T01:50:20;18.90;;;13.83;;
11058;SDS011;5582;59.272;15.220;2022-08-16T01:52:46;15.90;;;14.33;;
11058;SDS011;5582;59.272;15.220;2022-08-16T01:55:12;18.30;;;15.17;;
11058;SDS011;5582;59.272;15.220;2022-08-16T01:57:41;17.97;;;14.17;;
11058;SDS011;5582;59.272;15.220;2022-08-16T02:00:08;15.50;;;13.87;;
11058;SDS011;5582;59.272;15.220;2022-08-16T02:02:35;14.80;;;13.20;;
11058;SDS011;5582;59.272;15.220;2022-08-16T02:05:01;15.73;;;14.03;;
11058;SDS011;5582;59.272;15.220;2022-08-16T02:07:27;17.70;;;15.07;;
11058;SDS011;5582;59.272;15.220;2022-08-16T02:09:53;17.80;;;13.93;;
11058;SDS011;5582;59.272;15.220;2022-08-16T02:12:19;16.67;;;13.93;;
11058;SDS011;5582;59.272;15.220;2022-08-16T02:14:44;17.30;;;14.60;;
11058;SDS011;5582;59.272;15.220;2022-08-16T02:17:10;14.60;;;13.20;;
11058;SDS011;5582;59.272;15.220;2022-08-16T02:19:37;16.17;;;14.63;;
11058;SDS011;5582;59.272;15.220;2022-08-16T02:22:05;17.43;;;14.40;;
11058;SDS011;5582;59.272;15.220;2022-08-16T02:24:34;17.07;;;15.47;;
11058;SDS011;5582;59.272;15.220;2022-08-16T02:26:59;19.50;;;14.43;;
11058;SDS011;5582;59.272;15.220;2022-08-16T02:29:25;17.43;;;15.67;;
11058;SDS011;5582;59.272;15.220;2022-08-16T02:31:51;15.90;;;14.20;;
11058;SDS011;5582;59.272;15.220;2022-08-16T02:34:18;16.20;;;14.67;;
11058;SDS011;5582;59.272;15.220;2022-08-16T02:36:45;17.70;;;15.77;;
11058;SDS011;5582;59.272;15.220;2022-08-16T02:39:11;15.97;;;14.40;;
11058;SDS011;5582;59.272;15.220;2022-08-16T02:41:39;17.53;;;15.00;;
11058;SDS011;5582;59.272;15.220;2022-08-16T02:44:06;17.40;;;15.80;;
11058;SDS011;5582;59.272;15.220;2022-08-16T02:46:33;16.67;;;14.97;;
11058;SDS011;5582;59.272;15.220;2022-08-16T02:48:59;17.70;;;15.83;;
11058;SDS011;5582;59.272;15.220;2022-08-16T02:51:25;17.40;;;15.67;;
11058;SDS011;5582;59.272;15.220;2022-08-16T02:53:51;17.80;;;15.90;;
11058;SDS011;5582;59.272;15.220;2022-08-16T02:56:18;17.70;;;15.73;;
11058;SDS011;5582;59.272;15.220;2022-08-16T02:58:44;17.33;;;15.73;;
11058;SDS011;5582;59.272;15.220;2022-08-16T03:01:12;17.60;;;16.00;;
11058;SDS011;5582;59.272;15.220;2022-08-16T03:03:40;20.90;;;16.80;;
11058;SDS011;5582;59.272;15.220;2022-08-16T03:06:05;18.53;;;16.70;;
11058;SDS011;5582;59.272;15.220;2022-08-16T03:08:31;18.90;;;17.00;;
11058;SDS011;5582;59.272;15.220;2022-08-16T03:10:57;17.90;;;16.23;;
11058;SDS011;5582;59.272;15.220;2022-08-16T03:13:22;18.17;;;16.40;;
11058;SDS011;5582;59.272;15.220;2022-08-16T03:15:48;19.20;;;17.17;;
11058;SDS011;5582;59.272;15.220;2022-08-16T03:18:14;18.87;;;17.13;;
11058;SDS011;5582;59.272;15.220;2022-08-16T03:20:40;20.00;;;16.70;;
11058;SDS011;5582;59.272;15.220;2022-08-16T03:23:06;18.47;;;16.77;;
11058;SDS011;5582;59.272;15.220;2022-08-16T03:25:32;18.77;;;17.10;;
11058;SDS011;5582;59.272;15.220;2022-08-16T03:27:59;19.47;;;16.17;;
11058;SDS011;5582;59.272;15.220;2022-08-16T03:30:26;18.40;;;16.50;;
11058;SDS011;5582;59.272;15.220;2022-08-16T03:32:54;17.93;;;16.17;;
11058;SDS011;5582;59.272;15.220;2022-08-16T03:35:24;17.77;;;15.97;;
11058;SDS011;5582;59.272;15.220;2022-08-16T03:37:59;17.23;;;15.53;;
11058;SDS011;5582;59.272;15.220;2022-08-16T03:40:27;16.53;;;15.13;;
11058;SDS011;5582;59.272;15.220;2022-08-16T03:42:54;16.60;;;15.07;;
11058;SDS011;5582;59.272;15.220;2022-08-16T03:45:19;16.60;;;15.00;;
11058;SDS011;5582;59.272;15.220;2022-08-16T03:47:46;15.17;;;13.77;;
11058;SDS011;5582;59.272;15.220;2022-08-16T03:50:12;14.97;;;13.33;;
11058;SDS011;5582;59.272;15.220;2022-08-16T03:52:38;14.70;;;13.23;;
11058;SDS011;5582;59.272;15.220;2022-08-16T03:55:05;14.97;;;12.87;;
11058;SDS011;5582;59.272;15.220;2022-08-16T03:57:31;15.10;;;13.30;;
11058;SDS011;5582;59.272;15.220;2022-08-16T03:59:57;15.33;;;13.97;;
11058;SDS011;5582;59.272;15.220;2022-08-16T04:02:23;14.83;;;13.53;;
11058;SDS011;5582;59.272;15.220;2022-08-16T04:04:49;17.80;;;14.13;;
11058;SDS011;5582;59.272;15.220;2022-08-16T04:07:15;14.50;;;13.30;;
11058;SDS011;5582;59.272;15.220;2022-08-16T04:09:41;15.33;;;13.73;;
11058;SDS011;5582;59.272;15.220;2022-08-16T04:12:07;16.93;;;12.97;;
11058;SDS011;5582;59.272;15.220;2022-08-16T04:14:35;14.07;;;12.57;;
11058;SDS011;5582;59.272;15.220;2022-08-16T04:17:01;14.60;;;13.10;;
11058;SDS011;5582;59.272;15.220;2022-08-16T04:19:27;15.03;;;13.57;;
11058;SDS011;5582;59.272;15.220;2022-08-16T04:21:53;13.80;;;12.50;;
11058;SDS011;5582;59.272;15.220;2022-08-16T04:24:19;14.30;;;13.03;;
11058;SDS011;5582;59.272;15.220;2022-08-16T04:26:45;13.90;;;12.50;;
11058;SDS011;5582;59.272;15.220;2022-08-16T04:29:10;13.67;;;12.33;;
11058;SDS011;5582;59.272;15.220;2022-08-16T04:31:36;15.67;;;12.43;;
11058;SDS011;5582;59.272;15.220;2022-08-16T04:34:02;14.40;;;12.67;;
11058;SDS011;5582;59.272;15.220;2022-08-16T04:36:28;14.10;;;12.63;;
11058;SDS011;5582;59.272;15.220;2022-08-16T04:38:55;14.10;;;12.03;;
11058;SDS011;5582;59.272;15.220;2022-08-16T04:41:21;13.57;;;11.53;;
11058;SDS011;5582;59.272;15.220;2022-08-16T20:33:17;13.47;;;12.20;;
11058;SDS011;5582;59.272;15.220;2022-08-16T20:35:43;14.37;;;13.07;;
11058;SDS011;5582;59.272;15.220;2022-08-16T20:38:08;14.70;;;12.50;;
11058;SDS011;5582;59.272;15.220;2022-08-16T20:40:36;13.80;;;11.93;;
11058;SDS011;5582;59.272;15.220;2022-08-16T20:43:03;14.77;;;12.23;;
11058;SDS011;5582;59.272;15.220;2022-08-16T20:45:38;12.50;;;11.30;;
11058;SDS011;5582;59.272;15.220;2022-08-16T20:48:05;13.87;;;12.37;;
11058;SDS011;5582;59.272;15.220;2022-08-16T20:50:31;16.50;;;12.90;;
11058;SDS011;5582;59.272;15.220;2022-08-16T20:52:58;13.03;;;11.73;;
11058;SDS011;5582;59.272;15.220;2022-08-16T20:55:24;12.37;;;11.17;;
11058;SDS011;5582;59.272;15.220;2022-08-16T20:57:51;12.43;;;11.23;;
11058;SDS011;5582;59.272;15.220;2022-08-16T21:00:16;13.27;;;12.07;;
11058;SDS011;5582;59.272;15.220;2022-08-16T21:02:43;12.33;;;11.07;;
11058;SDS011;5582;59.272;15.220;2022-08-16T21:05:09;11.13;;;10.10;;
11058;SDS011;5582;59.272;15.220;2022-08-16T21:07:43;12.03;;;10.90;;
11058;SDS011;5582;59.272;15.220;2022-08-16T21:10:08;13.70;;;11.53;;
11058;SDS011;5582;59.272;15.220;2022-08-16T21:12:34;12.67;;;11.57;;
11058;SDS011;5582;59.272;15.220;2022-08-16T21:15:04;13.03;;;11.83;;
11058;SDS011;5582;59.272;15.220;2022-08-16T21:17:31;13.87;;;12.47;;
11058;SDS011;5582;59.272;15.220;2022-08-16T21:19:57;14.93;;;13.47;;
11058;SDS011;5582;59.272;15.220;2022-08-16T21:22:23;17.00;;;13.67;;
11058;SDS011;5582;59.272;15.220;2022-08-16T21:24:48;14.73;;;13.03;;
11058;SDS011;5582;59.272;15.220;2022-08-16T21:27:14;14.33;;;12.90;;
11058;SDS011;5582;59.272;15.220;2022-08-16T21:29:41;15.17;;;12.93;;
11058;SDS011;5582;59.272;15.220;2022-08-16T21:32:09;14.90;;;13.40;;
11058;SDS011;5582;59.272;15.220;2022-08-16T21:34:41;14.77;;;13.37;;
11058;SDS011;5582;59.272;15.220;2022-08-16T21:37:07;15.43;;;13.57;;
11058;SDS011;5582;59.272;15.220;2022-08-16T21:39:33;17.33;;;15.03;;
11058;SDS011;5582;59.272;15.220;2022-08-16T21:41:59;16.83;;;14.80;;
11058;SDS011;5582;59.272;15.220;2022-08-16T21:44:25;16.83;;;15.23;;
11058;SDS011;5582;59.272;15.220;2022-08-16T21:46:50;18.63;;;15.43;;
11058;SDS011;5582;59.272;15.220;2022-08-16T21:49:16;18.43;;;15.87;;
11058;SDS011;5582;59.272;15.220;2022-08-16T21:51:42;15.57;;;13.97;;
11058;SDS011;5582;59.272;15.220;2022-08-16T21:54:08;14.03;;;12.77;;
11058;SDS011;5582;59.272;15.220;2022-08-16T21:56:34;14.50;;;13.03;;
11058;SDS011;5582;59.272;15.220;2022-08-16T21:58:59;14.60;;;12.90;;
11058;SDS011;5582;59.272;15.220;2022-08-16T22:01:25;15.07;;;13.57;;
11058;SDS011;5582;59.272;15.220;2022-08-16T22:03:51;15.00;;;12.93;;
11058;SDS011;5582;59.272;15.220;2022-08-16T22:06:17;15.20;;;13.73;;
11058;SDS011;5582;59.272;15.220;2022-08-16T22:08:46;16.53;;;14.83;;
11058;SDS011;5582;59.272;15.220;2022-08-16T22:11:13;17.70;;;15.90;;
11058;SDS011;5582;59.272;15.220;2022-08-16T22:13:39;16.40;;;14.67;;
11058;SDS011;5582;59.272;15.220;2022-08-16T22:16:04;17.67;;;15.40;;
11058;SDS011;5582;59.272;15.220;2022-08-16T22:18:30;17.77;;;15.93;;
11058;SDS011;5582;59.272;15.220;2022-08-16T22:20:56;16.83;;;15.13;;
11058;SDS011;5582;59.272;15.220;2022-08-16T22:23:23;16.77;;;15.07;;
11058;SDS011;5582;59.272;15.220;2022-08-16T22:25:51;16.97;;;15.37;;
11058;SDS011;5582;59.272;15.220;2022-08-16T22:28:18;16.67;;;15.03;;
11058;SDS011;5582;59.272;15.220;2022-08-16T22:30:45;15.50;;;13.87;;
11058;SDS011;5582;59.272;15.220;2022-08-16T22:33:13;17.23;;;14.93;;
11058;SDS011;5582;59.272;15.220;2022-08-16T22:36:00;16.90;;;15.10;;
11058;SDS011;5582;59.272;15.220;2022-08-16T22:38:27;17.47;;;15.07;;
11058;SDS011;5582;59.272;15.220;2022-08-16T22:40:53;17.60;;;15.00;;
11058;SDS011;5582;59.272;15.220;2022-08-16T22:43:19;20.07;;;17.03;;
11058;SDS011;5582;59.272;15.220;2022-08-16T22:45:46;17.00;;;15.43;;
11058;SDS011;5582;59.272;15.220;2022-08-16T22:48:12;18.30;;;16.03;;
11058;SDS011;5582;59.272;15.220;2022-08-16T22:50:39;17.57;;;15.73;;
11058;SDS011;5582;59.272;15.220;2022-08-16T22:53:05;16.10;;;14.40;;
11058;SDS011;5582;59.272;15.220;2022-08-16T22:55:33;19.57;;;14.53;;
11058;SDS011;5582;59.272;15.220;2022-08-16T22:58:00;19.93;;;14.63;;
11058;SDS011;5582;59.272;15.220;2022-08-16T23:00:27;16.77;;;14.17;;
11058;SDS011;5582;59.272;15.220;2022-08-16T23:05:30;17.23;;;15.43;;
11058;SDS011;5582;59.272;15.220;2022-08-16T23:07:59;17.97;;;16.07;;
11058;SDS011;5582;59.272;15.220;2022-08-16T23:10:26;17.47;;;15.87;;
11058;SDS011;5582;59.272;15.220;2022-08-16T23:12:53;16.70;;;15.13;;
11058;SDS011;5582;59.272;15.220;2022-08-16T23:15:22;16.10;;;14.57;;
11058;SDS011;5582;59.272;15.220;2022-08-16T23:17:51;18.07;;;15.40;;
11058;SDS011;5582;59.272;15.220;2022-08-16T23:20:24;16.10;;;14.57;;
11058;SDS011;5582;59.272;15.220;2022-08-16T23:22:53;17.37;;;15.67;;
11058;SDS011;5582;59.272;15.220;2022-08-16T23:25:23;19.40;;;15.37;;
11058;SDS011;5582;59.272;15.220;2022-08-16T23:27:55;15.97;;;14.33;;
11058;SDS011;5582;59.272;15.220;2022-08-16T23:30:21;18.13;;;16.23;;
11058;SDS011;5582;59.272;15.220;2022-08-16T23:32:51;17.87;;;16.07;;
11058;SDS011;5582;59.272;15.220;2022-08-16T23:35:24;16.63;;;15.13;;
11058;SDS011;5582;59.272;15.220;2022-08-16T23:37:51;16.23;;;14.73;;
11058;SDS011;5582;59.272;15.220;2022-08-16T23:40:18;18.17;;;16.47;;
11058;SDS011;5582;59.272;15.220;2022-08-16T23:42:58;17.57;;;15.80;;
11058;SDS011;5582;59.272;15.220;2022-08-16T23:45:36;17.17;;;15.37;;
11058;SDS011;5582;59.272;15.220;2022-08-16T23:48:03;17.67;;;16.10;;
11058;SDS011;5582;59.272;15.220;2022-08-16T23:50:30;17.07;;;15.37;;
11058;SDS011;5582;59.272;15.220;2022-08-16T23:53:08;16.63;;;15.03;;
11058;SDS011;5582;59.272;15.220;2022-08-16T23:55:43;17.37;;;15.73;;
11058;SDS011;5582;59.272;15.220;2022-08-16T23:58:19;19.53;;;17.63;;
